PWSweather.com
Personal Weather Stations
Station Observations
INORDPAS37
Bondues, BonduesFR 59910

BonduesBonduesFR 59910

Lat: 50.7, Lon: 3.09

Elevation: 102

Station Type: Netatmo

http://bondues.meteoamikuze.com

High Low Average
Temperature 48.9°F9.4°C 42.6°F5.9°C 46.0°F7.8°C
Dew Point 37.9°F3.3°C 31.8°F-0.1°C 34.9°F1.6°C
Winds 8.7 mph 14.0 kmh 1.8 mph 2.9 kmh 4.0 mph SW6.4 kmh SW
Wind Gusts 21.7 mph34.9 kmh 4.3 mph6.9 kmh 10.0 mph16.1 kmh
Humidity 72% 66% 71%
Pressure 29.58 in1001.7 mb 29.41 in995.9 mb -
Precipitation 0.07 in1.8 mm - -
Hour Temp Dew Point Humidity Winds Wind Gusts Pressure Precip Precip Rate Daily Precip Total
12:01 AM 46.4°F8.0°C 33.6°F0.9°C 66% 3.8 mph SW6.1 kmh SW 9.4 mph15.1 kmh 29.46 in997.6 mb 0.00 in0.0 mm 0.00 in0.0 mm 0.00 in0.0 mm
12:35 AM 46.8°F8.2°C 34.3°F1.3°C 67% 4.3 mph SW6.9 kmh SW 11.9 mph19.2 kmh 29.46 in997.6 mb 0.00 in0.0 mm 0.00 in0.0 mm 0.00 in0.0 mm
12:41 AM 46.8°F8.2°C 34.3°F1.3°C 67% 3.1 mph SW5.0 kmh SW 9.4 mph15.1 kmh 29.45 in997.3 mb 0.00 in0.0 mm 0.00 in0.0 mm 0.00 in0.0 mm
01:01 AM 46.9°F8.3°C 34.9°F1.6°C 68% 4.3 mph SW6.9 kmh SW 12.5 mph20.1 kmh 29.44 in997.0 mb 0.00 in0.0 mm 0.00 in0.0 mm 0.00 in0.0 mm
01:35 AM 46.4°F8.0°C 34.3°F1.3°C 68% 3.8 mph SW6.1 kmh SW 8.7 mph14.0 kmh 29.44 in997.0 mb 0.01 in0.3 mm 0.02 in0.5 mm 0.01 in0.3 mm
01:55 AM 45.7°F7.6°C 33.6°F0.9°C 68% 4.3 mph SW6.9 kmh SW 9.8 mph15.8 kmh 29.43 in996.6 mb 0.04 in1.0 mm 0.08 in2.0 mm 0.04 in1.0 mm
02:15 AM 45.1°F7.3°C 33.6°F0.9°C 69% 3.8 mph SW6.1 kmh SW 9.4 mph15.1 kmh 29.42 in996.3 mb 0.05 in1.3 mm 0.01 in0.3 mm 0.05 in1.3 mm
02:21 AM 45.1°F7.3°C 34.0°F1.1°C 70% 3.8 mph SW6.1 kmh SW 11.9 mph19.2 kmh 29.42 in996.3 mb 0.04 in1.0 mm 0.00 in0.0 mm 0.05 in1.3 mm
02:55 AM 45.7°F7.6°C 34.9°F1.6°C 71% 4.9 mph SW7.9 kmh SW 10.5 mph16.9 kmh 29.42 in996.3 mb 0.01 in0.3 mm 0.00 in0.0 mm 0.05 in1.3 mm
03:01 AM 46.4°F8.0°C 35.4°F1.9°C 71% 6.9 mph SW11.1 kmh SW 15.0 mph24.1 kmh 29.41 in995.9 mb 0.00 in0.0 mm 0.00 in0.0 mm 0.05 in1.3 mm
03:21 AM 46.9°F8.3°C 36.3°F2.4°C 72% 5.6 mph WSW9.0 kmh WSW 13.0 mph20.9 kmh 29.41 in995.9 mb 0.00 in0.0 mm 0.00 in0.0 mm 0.06 in1.5 mm
03:41 AM 47.7°F8.7°C 37.0°F2.8°C 72% 4.9 mph WSW7.9 kmh WSW 11.9 mph19.2 kmh 29.41 in995.9 mb 0.00 in0.0 mm 0.00 in0.0 mm 0.06 in1.5 mm
04:01 AM 48.2°F9.0°C 37.6°F3.1°C 72% 5.6 mph WSW9.0 kmh WSW 13.6 mph21.9 kmh 29.41 in995.9 mb 0.00 in0.0 mm 0.00 in0.0 mm 0.06 in1.5 mm
04:22 AM 48.4°F9.1°C 37.8°F3.2°C 72% 6.9 mph WSW11.1 kmh WSW 14.3 mph23.0 kmh 29.41 in995.9 mb 0.00 in0.0 mm 0.00 in0.0 mm 0.06 in1.5 mm
04:42 AM 48.2°F9.0°C 37.2°F2.9°C 71% 5.6 mph W9.0 kmh W 16.1 mph25.9 kmh 29.42 in996.3 mb 0.00 in0.0 mm 0.00 in0.0 mm 0.06 in1.5 mm
05:02 AM 48.2°F9.0°C 36.9°F2.7°C 70% 4.9 mph W7.9 kmh W 13.6 mph21.9 kmh 29.42 in996.3 mb 0.00 in0.0 mm 0.00 in0.0 mm 0.06 in1.5 mm
05:23 AM 47.8°F8.8°C 36.1°F2.3°C 69% 4.3 mph WSW6.9 kmh WSW 10.5 mph16.9 kmh 29.43 in996.6 mb 0.00 in0.0 mm 0.00 in0.0 mm 0.06 in1.5 mm
05:43 AM 47.7°F8.7°C 36.3°F2.4°C 70% 3.8 mph WSW6.1 kmh WSW 8.1 mph13.0 kmh 29.44 in997.0 mb 0.00 in0.0 mm 0.00 in0.0 mm 0.06 in1.5 mm
06:04 AM 47.5°F8.6°C 36.1°F2.3°C 70% 3.1 mph WSW5.0 kmh WSW 8.7 mph14.0 kmh 29.43 in996.6 mb 0.00 in0.0 mm 0.00 in0.0 mm 0.06 in1.5 mm
06:23 AM 47.5°F8.6°C 36.1°F2.3°C 70% 3.8 mph WSW6.1 kmh WSW 8.1 mph13.0 kmh 29.44 in997.0 mb 0.00 in0.0 mm 0.00 in0.0 mm 0.06 in1.5 mm
06:44 AM 47.1°F8.4°C 35.8°F2.1°C 70% 3.8 mph SW6.1 kmh SW 10.5 mph16.9 kmh 29.44 in997.0 mb 0.00 in0.0 mm 0.00 in0.0 mm 0.06 in1.5 mm
07:04 AM 47.1°F8.4°C 36.1°F2.3°C 71% 1.8 mph WSW2.9 kmh WSW 4.3 mph6.9 kmh 29.44 in997.0 mb 0.00 in0.0 mm 0.00 in0.0 mm 0.06 in1.5 mm
07:25 AM 46.9°F8.3°C 36.0°F2.2°C 71% 2.5 mph WSW4.0 kmh WSW 5.6 mph9.0 kmh 29.44 in997.0 mb 0.00 in0.0 mm 0.00 in0.0 mm 0.06 in1.5 mm
07:44 AM 46.8°F8.2°C 35.8°F2.1°C 71% 3.8 mph SW6.1 kmh SW 7.4 mph11.9 kmh 29.44 in997.0 mb 0.00 in0.0 mm 0.00 in0.0 mm 0.06 in1.5 mm
08:05 AM 46.4°F8.0°C 35.4°F1.9°C 71% 3.1 mph SW5.0 kmh SW 7.4 mph11.9 kmh 29.44 in997.0 mb 0.00 in0.0 mm 0.00 in0.0 mm 0.06 in1.5 mm
08:25 AM 46.2°F7.9°C 35.2°F1.8°C 71% 3.8 mph SW6.1 kmh SW 8.7 mph14.0 kmh 29.44 in997.0 mb 0.00 in0.0 mm 0.00 in0.0 mm 0.06 in1.5 mm
08:45 AM 46.2°F7.9°C 35.2°F1.8°C 71% 3.8 mph SW6.1 kmh SW 9.4 mph15.1 kmh 29.45 in997.3 mb 0.00 in0.0 mm 0.00 in0.0 mm 0.06 in1.5 mm
09:06 AM 46.2°F7.9°C 35.2°F1.8°C 71% 3.1 mph SW5.0 kmh SW 5.6 mph9.0 kmh 29.45 in997.3 mb 0.00 in0.0 mm 0.00 in0.0 mm 0.06 in1.5 mm
09:26 AM 46.2°F7.9°C 35.2°F1.8°C 71% 2.5 mph SW4.0 kmh SW 4.9 mph7.9 kmh 29.46 in997.6 mb 0.00 in0.0 mm 0.00 in0.0 mm 0.06 in1.5 mm
09:46 AM 46.2°F7.9°C 35.2°F1.8°C 71% 2.5 mph SW4.0 kmh SW 7.4 mph11.9 kmh 29.46 in997.6 mb 0.00 in0.0 mm 0.00 in0.0 mm 0.06 in1.5 mm
10:06 AM 46.4°F8.0°C 35.4°F1.9°C 71% 3.1 mph SW5.0 kmh SW 8.7 mph14.0 kmh 29.45 in997.3 mb 0.00 in0.0 mm 0.00 in0.0 mm 0.06 in1.5 mm
10:27 AM 46.6°F8.1°C 35.6°F2.0°C 71% 3.8 mph SW6.1 kmh SW 11.2 mph18.0 kmh 29.45 in997.3 mb 0.00 in0.0 mm 0.00 in0.0 mm 0.06 in1.5 mm
10:46 AM 46.9°F8.3°C 36.0°F2.2°C 71% 3.1 mph SW5.0 kmh SW 9.8 mph15.8 kmh 29.45 in997.3 mb 0.00 in0.0 mm 0.00 in0.0 mm 0.06 in1.5 mm
11:07 AM 47.1°F8.4°C 36.1°F2.3°C 71% 3.1 mph SW5.0 kmh SW 9.4 mph15.1 kmh 29.46 in997.6 mb 0.00 in0.0 mm 0.00 in0.0 mm 0.06 in1.5 mm
11:27 AM 47.5°F8.6°C 36.5°F2.5°C 71% 3.1 mph SW5.0 kmh SW 9.4 mph15.1 kmh 29.46 in997.6 mb 0.00 in0.0 mm 0.00 in0.0 mm 0.06 in1.5 mm
11:48 AM 47.8°F8.8°C 36.9°F2.7°C 71% 3.8 mph SW6.1 kmh SW 8.7 mph14.0 kmh 29.46 in997.6 mb 0.00 in0.0 mm 0.00 in0.0 mm 0.06 in1.5 mm
12:08 PM 48.0°F8.9°C 37.0°F2.8°C 71% 3.8 mph SW6.1 kmh SW 8.1 mph13.0 kmh 29.44 in997.0 mb 0.00 in0.0 mm 0.00 in0.0 mm 0.06 in1.5 mm
12:28 PM 48.2°F9.0°C 37.2°F2.9°C 71% 4.3 mph SW6.9 kmh SW 10.5 mph16.9 kmh 29.44 in997.0 mb 0.00 in0.0 mm 0.00 in0.0 mm 0.06 in1.5 mm
12:49 PM 48.4°F9.1°C 37.4°F3.0°C 71% 4.3 mph SW6.9 kmh SW 11.2 mph18.0 kmh 29.44 in997.0 mb 0.00 in0.0 mm 0.00 in0.0 mm 0.06 in1.5 mm
01:08 PM 48.6°F9.2°C 37.6°F3.1°C 71% 3.8 mph SW6.1 kmh SW 9.4 mph15.1 kmh 29.44 in997.0 mb 0.00 in0.0 mm 0.00 in0.0 mm 0.06 in1.5 mm
01:29 PM 48.7°F9.3°C 37.8°F3.2°C 71% 4.9 mph SW7.9 kmh SW 10.5 mph16.9 kmh 29.44 in997.0 mb 0.00 in0.0 mm 0.00 in0.0 mm 0.06 in1.5 mm
01:55 PM 48.7°F9.3°C 37.8°F3.2°C 71% 4.9 mph SW7.9 kmh SW 11.2 mph18.0 kmh 29.43 in996.6 mb 0.00 in0.0 mm 0.00 in0.0 mm 0.06 in1.5 mm
02:15 PM 48.9°F9.4°C 37.9°F3.3°C 71% 4.3 mph SW6.9 kmh SW 11.9 mph19.2 kmh 29.43 in996.6 mb 0.00 in0.0 mm 0.00 in0.0 mm 0.06 in1.5 mm
02:26 PM 48.9°F9.4°C 37.6°F3.1°C 70% 4.3 mph SW6.9 kmh SW 12.5 mph20.1 kmh 29.44 in997.0 mb 0.00 in0.0 mm 0.00 in0.0 mm 0.06 in1.5 mm
02:47 PM 48.2°F9.0°C 36.9°F2.7°C 70% 8.7 mph WSW14.0 kmh WSW 21.7 mph34.9 kmh 29.44 in997.0 mb 0.00 in0.0 mm 0.01 in0.3 mm 0.06 in1.5 mm
03:07 PM 47.1°F8.4°C 35.8°F2.1°C 70% 5.6 mph SW9.0 kmh SW 13.6 mph21.9 kmh 29.45 in997.3 mb 0.01 in0.3 mm 0.01 in0.3 mm 0.06 in1.5 mm
03:28 PM 46.8°F8.2°C 35.8°F2.1°C 71% 4.9 mph SW7.9 kmh SW 14.3 mph23.0 kmh 29.46 in997.6 mb 0.01 in0.3 mm 0.00 in0.0 mm 0.06 in1.5 mm
03:47 PM 46.4°F8.0°C 35.4°F1.9°C 71% 3.1 mph SW5.0 kmh SW 7.4 mph11.9 kmh 29.46 in997.6 mb 0.00 in0.0 mm 0.00 in0.0 mm 0.06 in1.5 mm
04:08 PM 45.9°F7.7°C 35.1°F1.7°C 71% 3.1 mph SW5.0 kmh SW 8.7 mph14.0 kmh 29.46 in997.6 mb 0.00 in0.0 mm 0.00 in0.0 mm 0.06 in1.5 mm
04:28 PM 45.3°F7.4°C 34.5°F1.4°C 71% 3.8 mph SW6.1 kmh SW 8.7 mph14.0 kmh 29.47 in998.0 mb 0.00 in0.0 mm 0.00 in0.0 mm 0.06 in1.5 mm
04:48 PM 44.8°F7.1°C 34.0°F1.1°C 71% 3.8 mph WSW6.1 kmh WSW 11.2 mph18.0 kmh 29.47 in998.0 mb 0.00 in0.0 mm 0.00 in0.0 mm 0.06 in1.5 mm
05:08 PM 44.4°F6.9°C 33.6°F0.9°C 71% 2.5 mph SW4.0 kmh SW 6.9 mph11.1 kmh 29.47 in998.0 mb 0.00 in0.0 mm 0.00 in0.0 mm 0.06 in1.5 mm
05:35 PM 44.2°F6.8°C 33.4°F0.8°C 71% 3.1 mph SW5.0 kmh SW 10.5 mph16.9 kmh 29.48 in998.3 mb 0.00 in0.0 mm 0.00 in0.0 mm 0.06 in1.5 mm
05:46 PM 44.2°F6.8°C 33.4°F0.8°C 71% 3.8 mph WSW6.1 kmh WSW 16.8 mph27.0 kmh 29.50 in999.0 mb 0.00 in0.0 mm 0.00 in0.0 mm 0.06 in1.5 mm
06:06 PM 44.2°F6.8°C 33.8°F1.0°C 72% 5.6 mph WSW9.0 kmh WSW 16.1 mph25.9 kmh 29.50 in999.0 mb 0.00 in0.0 mm 0.01 in0.3 mm 0.07 in1.8 mm
06:27 PM 43.7°F6.5°C 32.9°F0.5°C 71% 3.8 mph WSW6.1 kmh WSW 8.7 mph14.0 kmh 29.50 in999.0 mb 0.00 in0.0 mm 0.00 in0.0 mm 0.07 in1.8 mm
06:47 PM 43.5°F6.4°C 32.7°F0.4°C 71% 4.3 mph SW6.9 kmh SW 9.4 mph15.1 kmh 29.50 in999.0 mb 0.00 in0.0 mm 0.00 in0.0 mm 0.07 in1.8 mm
07:07 PM 43.2°F6.2°C 32.4°F0.2°C 71% 3.1 mph SW5.0 kmh SW 7.4 mph11.9 kmh 29.50 in999.0 mb 0.00 in0.0 mm 0.00 in0.0 mm 0.07 in1.8 mm
07:28 PM 43.0°F6.1°C 32.2°F0.1°C 71% 3.1 mph SW5.0 kmh SW 7.4 mph11.9 kmh 29.51 in999.3 mb 0.00 in0.0 mm 0.00 in0.0 mm 0.07 in1.8 mm
07:47 PM 42.6°F5.9°C 31.8°F-0.1°C 71% 3.1 mph SW5.0 kmh SW 8.1 mph13.0 kmh 29.53 in1000.0 mb 0.00 in0.0 mm 0.00 in0.0 mm 0.07 in1.8 mm
08:08 PM 42.8°F6.0°C 32.0°F0.0°C 71% 3.1 mph SW5.0 kmh SW 8.7 mph14.0 kmh 29.54 in1000.3 mb 0.00 in0.0 mm 0.00 in0.0 mm 0.07 in1.8 mm
08:28 PM 42.8°F6.0°C 32.0°F0.0°C 71% 2.5 mph SW4.0 kmh SW 6.9 mph11.1 kmh 29.54 in1000.3 mb 0.00 in0.0 mm 0.00 in0.0 mm 0.07 in1.8 mm
08:49 PM 42.6°F5.9°C 31.8°F-0.1°C 71% 3.8 mph SW6.1 kmh SW 8.7 mph14.0 kmh 29.55 in1000.7 mb 0.00 in0.0 mm 0.00 in0.0 mm 0.07 in1.8 mm
09:08 PM 43.2°F6.2°C 32.7°F0.4°C 72% 3.8 mph SW6.1 kmh SW 9.4 mph15.1 kmh 29.56 in1001.0 mb 0.00 in0.0 mm 0.00 in0.0 mm 0.07 in1.8 mm
09:29 PM 43.3°F6.3°C 32.9°F0.5°C 72% 3.1 mph SW5.0 kmh SW 8.7 mph14.0 kmh 29.56 in1001.0 mb 0.00 in0.0 mm 0.00 in0.0 mm 0.07 in1.8 mm
09:49 PM 43.0°F6.1°C 32.5°F0.3°C 72% 2.5 mph SW4.0 kmh SW 4.3 mph6.9 kmh 29.56 in1001.0 mb 0.00 in0.0 mm 0.00 in0.0 mm 0.07 in1.8 mm
10:09 PM 42.6°F5.9°C 32.2°F0.1°C 72% 2.5 mph SW4.0 kmh SW 6.9 mph11.1 kmh 29.56 in1001.0 mb 0.00 in0.0 mm 0.00 in0.0 mm 0.07 in1.8 mm
10:35 PM 42.6°F5.9°C 32.2°F0.1°C 72% 3.1 mph SW5.0 kmh SW 6.9 mph11.1 kmh 29.56 in1001.0 mb 0.00 in0.0 mm 0.00 in0.0 mm 0.07 in1.8 mm
10:55 PM 43.2°F6.2°C 32.7°F0.4°C 72% 3.8 mph SW6.1 kmh SW 10.5 mph16.9 kmh 29.57 in1001.4 mb 0.00 in0.0 mm 0.00 in0.0 mm 0.07 in1.8 mm
11:15 PM 43.3°F6.3°C 32.9°F0.5°C 72% 3.8 mph SW6.1 kmh SW 8.1 mph13.0 kmh 29.58 in1001.7 mb 0.00 in0.0 mm 0.00 in0.0 mm 0.07 in1.8 mm
11:35 PM 43.3°F6.3°C 32.9°F0.5°C 72% 2.5 mph SW4.0 kmh SW 6.9 mph11.1 kmh 29.58 in1001.7 mb 0.00 in0.0 mm 0.00 in0.0 mm 0.07 in1.8 mm
11:55 PM 43.0°F6.1°C 32.5°F0.3°C 72% 2.5 mph SW4.0 kmh SW 8.7 mph14.0 kmh 29.58 in1001.7 mb 0.00 in0.0 mm 0.00 in0.0 mm 0.07 in1.8 mm